createdAt,value
2022-08-26T00:02:01.850Z,100076.41
2022-08-26T00:04:32.010Z,100078.16
2022-08-26T00:07:05.339Z,100082.75
2022-08-26T00:09:37.257Z,100074.44
2022-08-26T00:12:09.554Z,100075.03
2022-08-26T00:14:42.204Z,100072.38
2022-08-26T00:17:11.920Z,100073.00
2022-08-26T00:19:41.348Z,100089.13
2022-08-26T00:22:14.333Z,100097.97
2022-08-26T00:24:51.104Z,100097.88
2022-08-26T00:27:20.587Z,100089.81
2022-08-26T00:29:50.281Z,100093.22
2022-08-26T00:32:20.208Z,100086.41
2022-08-26T00:34:49.680Z,100086.63
2022-08-26T00:37:21.697Z,100089.41
2022-08-26T00:39:52.868Z,100088.41
2022-08-26T00:42:22.315Z,100083.09
2022-08-26T00:44:52.212Z,100080.97
2022-08-26T00:47:25.249Z,100082.06
2022-08-26T00:49:54.784Z,100079.66
2022-08-26T00:52:26.824Z,100077.03
2022-08-26T00:54:58.221Z,100084.16
2022-08-26T00:57:28.127Z,100083.56
2022-08-26T00:59:59.322Z,100078.75
2022-08-26T01:02:29.614Z,100082.03
2022-08-26T01:05:00.704Z,100083.97
2022-08-26T01:07:33.187Z,100078.31
2022-08-26T01:10:04.556Z,100078.31
2022-08-26T01:12:36.540Z,100083.56
2022-08-26T01:15:10.537Z,100091.34
2022-08-26T01:17:41.176Z,100090.84
2022-08-26T01:20:19.755Z,100090.94
2022-08-26T01:22:54.769Z,100089.00
2022-08-26T01:25:24.384Z,100090.94
2022-08-26T01:27:53.941Z,100093.91
2022-08-26T01:30:27.187Z,100085.88
2022-08-26T01:32:57.460Z,100093.50
2022-08-26T01:35:26.926Z,100089.97
2022-08-26T01:38:00.286Z,100090.28
2022-08-26T01:40:32.693Z,100088.47
2022-08-26T01:43:02.492Z,100083.63
2022-08-26T01:45:32.915Z,100094.97
2022-08-26T01:48:02.512Z,100087.94
2022-08-26T01:50:33.515Z,100092.25
2022-08-26T01:53:09.515Z,100093.34
2022-08-26T01:55:40.678Z,100090.13
2022-08-26T01:58:12.226Z,100082.91
2022-08-26T02:00:44.128Z,100092.69
2022-08-26T02:03:21.683Z,100081.69
2022-08-26T02:05:55.996Z,100083.84
2022-08-26T02:08:30.097Z,100080.66
2022-08-26T02:11:00.124Z,100086.63
2022-08-26T02:13:30.622Z,100085.03
2022-08-26T02:16:00.556Z,100087.50
2022-08-26T02:18:30.561Z,100092.38
2022-08-26T02:21:00.408Z,100089.69
2022-08-26T02:23:32.560Z,100091.91
2022-08-26T02:26:05.528Z,100091.69
2022-08-26T02:28:38.436Z,100094.69
2022-08-26T02:31:08.587Z,100093.63
2022-08-26T02:33:43.125Z,100089.28
2022-08-26T02:36:13.503Z,100092.00
2022-08-26T02:38:47.586Z,100095.84
2022-08-26T02:41:17.620Z,100093.22
2022-08-26T02:43:47.575Z,100085.72
2022-08-26T02:46:21.512Z,100091.13
2022-08-26T02:48:59.647Z,100088.97
2022-08-26T02:51:29.087Z,100083.63
2022-08-26T02:54:01.143Z,100080.16
2022-08-26T02:56:31.068Z,100082.53
2022-08-26T02:59:02.007Z,100085.56
2022-08-26T03:01:33.411Z,100088.47
2022-08-26T03:04:03.191Z,100083.94
2022-08-26T03:06:32.814Z,100085.56
2022-08-26T03:09:04.864Z,100080.78
2022-08-26T03:11:34.479Z,100079.25
2022-08-26T03:14:04.836Z,100082.28
2022-08-26T03:16:35.443Z,100080.97
2022-08-26T03:19:05.181Z,100082.50
2022-08-26T03:24:08.568Z,100090.09
2022-08-26T03:26:38.013Z,100086.09
2022-08-26T03:29:21.116Z,100085.81
2022-08-26T03:31:50.610Z,100082.56
2022-08-26T03:34:20.241Z,100085.84
2022-08-26T03:36:51.877Z,100081.56
2022-08-26T03:39:23.915Z,100086.09
2022-08-26T03:41:55.409Z,100093.41
2022-08-26T03:44:24.667Z,100090.53
2022-08-26T03:46:54.993Z,100085.72
2022-08-26T03:49:24.654Z,100086.59
2022-08-26T03:51:58.413Z,100085.75
2022-08-26T03:54:30.458Z,100091.00
2022-08-26T03:56:59.930Z,100094.91
2022-08-26T03:59:29.466Z,100088.28
2022-08-26T04:01:59.037Z,100095.34
2022-08-26T04:04:28.596Z,100099.84
2022-08-26T04:06:59.076Z,100107.50
2022-08-26T04:09:31.106Z,100102.03
2022-08-26T04:12:04.659Z,100101.19
2022-08-26T04:14:35.672Z,100099.25
2022-08-26T04:17:07.508Z,100105.00
2022-08-26T04:19:37.055Z,100098.78
2022-08-26T04:22:06.526Z,100096.94
2022-08-26T04:24:39.177Z,100089.63
2022-08-26T04:27:10.389Z,100090.84
2022-08-26T04:29:41.610Z,100089.47
2022-08-26T04:32:11.241Z,100091.88
2022-08-26T04:34:41.449Z,100089.13
2022-08-26T04:37:13.213Z,100091.53
2022-08-26T04:39:45.760Z,100089.53
2022-08-26T04:42:19.888Z,100092.66
2022-08-26T04:44:55.688Z,100098.94
2022-08-26T04:47:29.134Z,100106.31
2022-08-26T04:50:01.978Z,100096.84
2022-08-26T04:52:31.580Z,100095.84
2022-08-26T04:55:03.604Z,100097.56
2022-08-26T04:57:36.143Z,100097.81
2022-08-26T05:00:06.997Z,100092.34
2022-08-26T05:02:36.694Z,100087.22
2022-08-26T05:05:07.225Z,100095.63
2022-08-26T05:07:36.961Z,100096.94
2022-08-26T05:10:10.233Z,100102.22
2022-08-26T05:12:40.317Z,100097.97
2022-08-26T05:15:11.244Z,100093.72
2022-08-26T05:17:40.776Z,100096.38
2022-08-26T05:20:12.037Z,100097.53
2022-08-26T05:22:41.533Z,100098.41
2022-08-26T05:25:13.708Z,100105.44
2022-08-26T05:27:43.171Z,100104.09
2022-08-26T05:30:13.388Z,100114.91
2022-08-26T05:32:42.854Z,100107.16
2022-08-26T05:35:12.593Z,100112.31
2022-08-26T05:37:42.426Z,100119.69
2022-08-26T05:40:15.274Z,100127.50
2022-08-26T05:42:44.760Z,100144.69
2022-08-26T05:45:15.077Z,100140.88
2022-08-26T05:47:46.744Z,100137.53
2022-08-26T05:50:21.790Z,100142.84
2022-08-26T05:52:52.432Z,100141.66
2022-08-26T05:55:26.900Z,100142.06
2022-08-26T05:57:56.685Z,100141.03
2022-08-26T06:00:26.846Z,100143.31
2022-08-26T06:02:56.395Z,100152.44
2022-08-26T06:05:26.665Z,100143.75
2022-08-26T06:08:10.378Z,100144.88
2022-08-26T06:10:48.476Z,100141.47
2022-08-26T06:13:18.525Z,100140.97
2022-08-26T06:15:50.331Z,100132.63
2022-08-26T06:18:21.257Z,100140.31
2022-08-26T06:20:57.164Z,100145.84
2022-08-26T06:26:26.435Z,100139.66
2022-08-26T06:28:56.139Z,100148.09
2022-08-26T06:31:25.732Z,100145.13
2022-08-26T06:33:55.385Z,100140.63
2022-08-26T06:36:25.939Z,100142.81
2022-08-26T06:38:55.879Z,100148.66
2022-08-26T06:41:27.925Z,100153.38
2022-08-26T06:43:57.370Z,100155.88
2022-08-26T06:46:27.192Z,100151.97
2022-08-26T06:48:58.216Z,100157.97
2022-08-26T06:51:28.120Z,100156.38
2022-08-26T06:53:59.587Z,100154.84
2022-08-26T06:56:34.824Z,100166.72
2022-08-26T06:59:04.569Z,100164.72
2022-08-26T07:01:38.542Z,100160.41
2022-08-26T07:04:15.909Z,100151.81
2022-08-26T07:06:52.897Z,100160.28
2022-08-26T07:09:23.065Z,100157.53
2022-08-26T07:11:56.188Z,100160.13
2022-08-26T07:14:26.201Z,100160.69
2022-08-26T07:16:56.010Z,100158.13
2022-08-26T07:19:31.092Z,100157.25
2022-08-26T07:22:02.228Z,100158.03
2022-08-26T07:24:33.017Z,100166.19
2022-08-26T07:27:07.250Z,100157.75
2022-08-26T07:29:39.009Z,100167.53
2022-08-26T07:32:08.841Z,100162.38
2022-08-26T07:34:39.724Z,100167.03
2022-08-26T07:37:11.336Z,100170.25
2022-08-26T07:39:41.782Z,100165.66
2022-08-26T07:42:15.844Z,100165.97
2022-08-26T07:44:47.914Z,100169.38
2022-08-26T07:47:24.932Z,100169.09
2022-08-26T07:49:56.454Z,100170.53
2022-08-26T07:52:27.238Z,100166.50
2022-08-26T07:54:58.233Z,100173.38
2022-08-26T07:57:30.443Z,100175.63
2022-08-26T07:59:59.937Z,100174.03
2022-08-26T08:02:30.663Z,100174.50
2022-08-26T08:05:00.290Z,100172.84
2022-08-26T08:07:44.979Z,100173.78
2022-08-26T08:10:15.651Z,100163.50
2022-08-26T08:12:47.869Z,100164.94
2022-08-26T08:15:17.549Z,100166.88
2022-08-26T08:17:47.006Z,100160.56
2022-08-26T08:20:20.440Z,100172.16
2022-08-26T08:22:50.069Z,100165.84
2022-08-26T08:25:19.545Z,100171.13
2022-08-26T08:27:51.578Z,100164.47
2022-08-26T08:30:23.070Z,100166.34
2022-08-26T08:32:52.712Z,100172.19
2022-08-26T08:35:23.357Z,100158.88
2022-08-26T08:37:54.827Z,100164.19
2022-08-26T08:40:25.467Z,100168.06
2022-08-26T08:43:00.315Z,100163.69
2022-08-26T08:45:36.554Z,100177.03
2022-08-26T08:48:08.104Z,100166.88
2022-08-26T08:50:44.650Z,100164.25
2022-08-26T08:53:17.788Z,100161.56
2022-08-26T08:56:00.130Z,100165.00
2022-08-26T08:58:37.549Z,100159.84
2022-08-26T09:01:09.860Z,100160.75
2022-08-26T09:03:45.956Z,100157.66
2022-08-26T09:06:20.580Z,100169.28
2022-08-26T09:08:51.186Z,100160.06
2022-08-26T09:11:21.103Z,100157.75
2022-08-26T09:13:54.564Z,100161.41
2022-08-26T09:16:27.673Z,100160.97
2022-08-26T09:19:07.023Z,100155.59
2022-08-26T09:21:36.590Z,100154.56
2022-08-26T09:24:06.824Z,100163.19
2022-08-26T09:26:45.616Z,100149.13
2022-08-26T09:29:22.588Z,100158.03
2022-08-26T09:31:52.055Z,100153.13
2022-08-26T09:34:23.811Z,100152.31
2022-08-26T09:36:54.308Z,100150.72
2022-08-26T09:39:37.697Z,100148.84
2022-08-26T09:42:10.781Z,100153.34
2022-08-26T09:44:59.741Z,100147.00
2022-08-26T09:47:31.764Z,100143.19
2022-08-26T09:50:04.665Z,100145.69
2022-08-26T09:52:40.642Z,100143.47
2022-08-26T09:55:15.013Z,100145.06
2022-08-26T09:57:49.654Z,100136.63
2022-08-26T10:00:32.356Z,100131.19
2022-08-26T10:03:03.310Z,100136.38
2022-08-26T10:05:35.916Z,100129.47
2022-08-26T10:08:18.714Z,100118.47
2022-08-26T10:10:48.239Z,100124.56
2022-08-26T10:13:27.995Z,100126.84
2022-08-26T10:16:06.271Z,100115.44
2022-08-26T10:18:43.077Z,100106.44
2022-08-26T10:21:15.041Z,100110.03
2022-08-26T10:23:48.950Z,100103.13
2022-08-26T10:26:21.517Z,100098.56
2022-08-26T10:28:53.773Z,100096.69
2022-08-26T10:31:30.311Z,100097.69
2022-08-26T10:34:07.942Z,100092.81
2022-08-26T10:37:14.546Z,100090.97
2022-08-26T10:39:46.362Z,100094.47
2022-08-26T10:42:19.265Z,100091.34
2022-08-26T10:44:49.386Z,100081.81
2022-08-26T10:47:24.613Z,100080.53
2022-08-26T10:49:57.502Z,100080.78
2022-08-26T10:52:35.025Z,100086.44
2022-08-26T10:55:05.964Z,100089.34
2022-08-26T10:57:45.204Z,100084.19
2022-08-26T11:00:29.076Z,100078.56
2022-08-26T11:03:06.191Z,100078.31
2022-08-26T11:06:08.461Z,100074.06
2022-08-26T11:08:37.931Z,100072.22
2022-08-26T11:11:09.195Z,100074.53
2022-08-26T11:14:06.333Z,100065.78
2022-08-26T11:16:43.436Z,100065.53
2022-08-26T11:20:00.233Z,100067.00
2022-08-26T11:22:32.300Z,100060.78
2022-08-26T11:25:12.228Z,100064.00
2022-08-26T11:28:09.388Z,100061.13
2022-08-26T11:30:57.676Z,100054.78
2022-08-26T11:34:00.766Z,100054.47
2022-08-26T11:37:03.483Z,100057.31
2022-08-26T11:39:36.665Z,100060.31
2022-08-26T11:42:25.426Z,100059.69
2022-08-26T11:44:58.194Z,100068.25
2022-08-26T11:47:30.735Z,100058.44
2022-08-26T11:50:14.334Z,100058.25
2022-08-26T11:52:53.337Z,100054.16
2022-08-26T11:55:23.305Z,100045.38
2022-08-26T11:57:54.639Z,100045.78
2022-08-26T12:00:25.391Z,100047.41
2022-08-26T12:02:55.666Z,100040.34
2022-08-26T12:05:30.833Z,100044.31
2022-08-26T12:08:06.226Z,100036.84
2022-08-26T12:10:36.531Z,100022.44
2022-08-26T12:13:07.236Z,100022.63
2022-08-26T12:15:36.957Z,100014.72
2022-08-26T12:18:29.681Z,100012.50
2022-08-26T12:21:01.578Z,100007.72
2022-08-26T12:23:43.331Z,100025.28
2022-08-26T12:26:15.412Z,100019.78
2022-08-26T12:28:47.108Z,100018.84
2022-08-26T12:31:24.106Z,100019.97
2022-08-26T12:33:54.699Z,100029.28
2022-08-26T12:36:27.611Z,100021.84
2022-08-26T12:39:08.354Z,100025.28
2022-08-26T12:41:46.981Z,100021.38
2022-08-26T12:44:38.341Z,100017.34
2022-08-26T12:47:09.262Z,100019.84
2022-08-26T12:49:39.505Z,100008.69
2022-08-26T12:52:09.920Z,100006.72
2022-08-26T12:54:56.821Z,100009.00
2022-08-26T12:57:29.114Z,100004.72
2022-08-26T13:00:40.828Z,100002.13
2022-08-26T13:03:46.102Z,100000.88
2022-08-26T13:06:17.773Z,100010.88
2022-08-26T13:08:47.783Z,100003.81
2022-08-26T13:11:21.601Z,100017.28
2022-08-26T13:13:51.706Z,100008.50
2022-08-26T13:16:21.669Z,100011.03
2022-08-26T13:18:51.626Z,100005.34
2022-08-26T13:21:22.144Z,100012.25
2022-08-26T13:23:51.729Z,100001.56
2022-08-26T13:26:24.322Z,99986.84
2022-08-26T13:29:01.445Z,99986.47
2022-08-26T13:31:32.507Z,99986.53
2022-08-26T13:34:03.082Z,99988.13
2022-08-26T13:36:32.581Z,99984.81
2022-08-26T13:39:02.027Z,99984.41
2022-08-26T13:41:34.595Z,99977.59
2022-08-26T13:44:04.268Z,99954.91
2022-08-26T13:46:33.819Z,99967.50
2022-08-26T13:49:03.401Z,99960.34
2022-08-26T13:51:33.013Z,99968.97
2022-08-26T13:54:02.522Z,99974.47
2022-08-26T13:56:34.628Z,99959.69
2022-08-26T13:59:04.401Z,99962.25
2022-08-26T14:01:34.479Z,99979.19
2022-08-26T14:04:03.946Z,99970.38
2022-08-26T14:06:33.449Z,99981.94
2022-08-26T14:09:03.218Z,99989.09
2022-08-26T14:11:50.981Z,99988.28
2022-08-26T14:14:25.083Z,99983.19
2022-08-26T14:16:59.486Z,100001.88
2022-08-26T14:19:30.539Z,100004.00
2022-08-26T14:22:00.771Z,100011.38
2022-08-26T14:24:30.880Z,100000.88
2022-08-26T14:27:02.912Z,99998.66
2022-08-26T14:29:32.352Z,100000.22
2022-08-26T14:32:02.492Z,99990.34
2022-08-26T14:34:32.069Z,99999.75
2022-08-26T14:37:07.246Z,99998.13
2022-08-26T14:39:38.129Z,99987.88
2022-08-26T14:42:10.351Z,99988.13
2022-08-26T14:44:40.004Z,99983.56
2022-08-26T14:47:09.629Z,99991.09
2022-08-26T14:49:39.077Z,99988.88
2022-08-26T14:52:08.588Z,99997.03
2022-08-26T14:54:35.435Z,99993.47
2022-08-26T14:57:06.240Z,99994.88
2022-08-26T14:59:39.308Z,99996.97
2022-08-26T15:02:11.501Z,100000.28
2022-08-26T15:04:59.869Z,100002.00
2022-08-26T15:07:29.318Z,99993.94
2022-08-26T15:09:58.729Z,100006.59
2022-08-26T15:12:28.182Z,100004.16
2022-08-26T15:15:00.197Z,99996.63
2022-08-26T15:17:29.884Z,99992.97
2022-08-26T15:19:59.361Z,99999.09
2022-08-26T15:22:29.877Z,100003.81
2022-08-26T15:24:59.160Z,100003.25
2022-08-26T15:27:28.618Z,99999.03
2022-08-26T15:30:00.624Z,100006.31
2022-08-26T15:32:30.762Z,100016.25
2022-08-26T15:35:00.200Z,100021.44
2022-08-26T15:37:29.661Z,100029.06
2022-08-26T15:39:59.481Z,100032.50
2022-08-26T15:42:28.932Z,100037.97
2022-08-26T15:45:00.950Z,100040.53
2022-08-26T15:47:31.083Z,100042.13
2022-08-26T15:50:04.898Z,100045.03
2022-08-26T15:52:34.349Z,100036.50
2022-08-26T15:57:53.469Z,100031.25
2022-08-26T16:00:26.472Z,100026.47
2022-08-26T16:02:55.940Z,100034.16
2022-08-26T16:05:25.473Z,100033.03
2022-08-26T16:07:55.084Z,100026.94
2022-08-26T16:10:24.790Z,100030.28
2022-08-26T16:12:54.262Z,100026.78
2022-08-26T16:15:26.287Z,100030.31
2022-08-26T16:17:55.734Z,100028.38
2022-08-26T16:20:26.163Z,100039.59
2022-08-26T16:22:55.621Z,100035.25
2022-08-26T16:25:25.435Z,100046.63
2022-08-26T16:27:54.908Z,100038.13
2022-08-26T16:30:27.769Z,100035.59
2022-08-26T16:32:58.623Z,100036.69
2022-08-26T16:35:28.232Z,100045.25
2022-08-26T16:37:57.953Z,100051.53
2022-08-26T16:40:27.518Z,100046.44
2022-08-26T16:42:57.364Z,100050.06
2022-08-26T16:45:29.448Z,100057.09
2022-08-26T16:47:59.170Z,100063.16
2022-08-26T16:50:28.605Z,100043.88
2022-08-26T16:52:58.145Z,100050.91
2022-08-26T16:55:27.584Z,100037.84
2022-08-26T16:57:57.032Z,100045.63
2022-08-26T17:00:30.490Z,100044.56
2022-08-26T17:03:00.592Z,100029.16
2022-08-26T17:05:30.461Z,100019.28
2022-08-26T17:08:01.093Z,100021.84
2022-08-26T17:10:31.196Z,100022.56
2022-08-26T17:13:00.794Z,100033.25
2022-08-26T17:15:32.925Z,100033.63
2022-08-26T17:18:02.477Z,100034.91
2022-08-26T17:20:32.412Z,100038.13
2022-08-26T17:23:01.965Z,100035.59
2022-08-26T17:25:33.241Z,100040.44
2022-08-26T17:28:02.682Z,100034.69
2022-08-26T17:30:34.732Z,100047.28
2022-08-26T17:33:10.913Z,100049.19
2022-08-26T17:35:40.625Z,100046.81
2022-08-26T17:38:10.435Z,100035.47
2022-08-26T17:40:40.093Z,100044.13
2022-08-26T17:43:12.324Z,100041.53
2022-08-26T17:45:44.642Z,100046.88
2022-08-26T17:48:14.104Z,100046.84
2022-08-26T17:50:49.400Z,100055.97
2022-08-26T17:53:19.420Z,100051.66
2022-08-26T17:55:48.948Z,100046.88
2022-08-26T17:58:18.617Z,100054.91
2022-08-26T18:00:54.182Z,100053.13
2022-08-26T18:03:23.700Z,100043.81
2022-08-26T18:05:53.863Z,100050.41
2022-08-26T18:08:23.520Z,100050.06
2022-08-26T18:10:53.009Z,100047.19
2022-08-26T18:13:22.467Z,100055.50
2022-08-26T18:15:54.518Z,100063.53
2022-08-26T18:18:24.008Z,100053.22
2022-08-26T18:21:01.511Z,100056.97
2022-08-26T18:23:31.608Z,100047.47
2022-08-26T18:26:01.045Z,100058.41
2022-08-26T18:28:30.500Z,100062.41
2022-08-26T18:31:04.398Z,100063.06
2022-08-26T18:33:33.904Z,100045.06
2022-08-26T18:36:03.698Z,100066.97
2022-08-26T18:38:33.430Z,100056.31
2022-08-26T18:41:06.416Z,100058.84
2022-08-26T18:43:36.277Z,100055.25
2022-08-26T18:46:09.520Z,100064.88
2022-08-26T18:48:39.682Z,100079.00
2022-08-26T18:51:09.250Z,100089.84
2022-08-26T18:53:42.098Z,100084.63
2022-08-26T18:56:13.219Z,100095.47
2022-08-26T18:58:44.863Z,100100.50
2022-08-26T19:01:26.749Z,100102.00
2022-08-26T19:03:57.003Z,100106.72
2022-08-26T19:06:27.064Z,100114.28
2022-08-26T19:08:57.965Z,100119.50
2022-08-26T19:11:32.568Z,100126.44
2022-08-26T19:14:06.995Z,100125.28
2022-08-26T19:16:39.260Z,100123.00
2022-08-26T19:19:08.753Z,100126.94
2022-08-26T19:21:38.670Z,100132.25
2022-08-26T19:24:12.279Z,100139.03
2022-08-26T19:26:41.772Z,100147.41
2022-08-26T19:29:11.317Z,100152.16
2022-08-26T19:31:43.965Z,100146.38
2022-08-26T19:34:13.648Z,100165.25
2022-08-26T19:36:46.733Z,100165.13
2022-08-26T19:39:16.051Z,100165.13
2022-08-26T19:41:45.484Z,100161.81
2022-08-26T19:44:36.744Z,100165.31
2022-08-26T19:47:09.665Z,100181.69
2022-08-26T19:49:39.107Z,100187.94
2022-08-26T19:52:08.768Z,100185.47
2022-08-26T19:54:38.209Z,100189.47
2022-08-26T19:57:08.045Z,100183.44
2022-08-26T19:59:38.031Z,100186.97
2022-08-26T20:02:11.275Z,100181.69
2022-08-26T20:04:44.437Z,100180.81
2022-08-26T20:07:18.135Z,100182.16
2022-08-26T20:09:48.517Z,100180.47
2022-08-26T20:12:18.741Z,100179.06
2022-08-26T20:14:48.167Z,100183.84
2022-08-26T20:17:20.210Z,100181.34
2022-08-26T20:20:02.219Z,100184.75
2022-08-26T20:22:31.679Z,100182.56
2022-08-26T20:25:01.133Z,100183.03
2022-08-26T20:27:37.927Z,100186.22
2022-08-26T20:30:10.160Z,100191.66
2022-08-26T20:32:42.568Z,100185.59
2022-08-26T20:35:14.029Z,100181.59
2022-08-26T20:37:43.521Z,100187.66
2022-08-26T20:40:14.421Z,100189.34
2022-08-26T20:42:43.985Z,100174.88
2022-08-26T20:45:13.925Z,100180.06
2022-08-26T20:47:45.957Z,100177.94
2022-08-26T20:50:15.414Z,100178.75
2022-08-26T20:52:44.854Z,100175.38
2022-08-26T20:55:14.330Z,100184.31
2022-08-26T20:57:44.350Z,100190.16
2022-08-26T21:00:18.141Z,100191.81
2022-08-26T21:02:53.906Z,100188.63
2022-08-26T21:05:23.448Z,100179.25
2022-08-26T21:07:53.265Z,100190.09
2022-08-26T21:10:22.945Z,100183.44
2022-08-26T21:12:53.036Z,100173.50
2022-08-26T21:15:22.481Z,100179.69
2022-08-26T21:17:54.480Z,100175.06
2022-08-26T21:20:24.135Z,100179.59
2022-08-26T21:22:53.628Z,100181.25
2022-08-26T21:25:23.193Z,100173.09
2022-08-26T21:27:52.673Z,100185.09
2022-08-26T21:30:22.187Z,100176.25
2022-08-26T21:32:54.216Z,100185.69
2022-08-26T21:35:23.663Z,100190.22
2022-08-26T21:37:53.089Z,100186.94
2022-08-26T21:40:22.593Z,100183.72
2022-08-26T21:42:52.073Z,100185.69
2022-08-26T21:45:21.814Z,100186.13
2022-08-26T21:47:56.413Z,100185.84
2022-08-26T21:50:25.922Z,100192.41
2022-08-26T21:52:55.366Z,100202.41
2022-08-26T21:55:24.926Z,100211.25
2022-08-26T21:57:54.933Z,100210.38
2022-08-26T22:00:24.542Z,100212.38
2022-08-26T22:02:57.456Z,100208.72
2022-08-26T22:05:26.905Z,100208.91
2022-08-26T22:07:56.396Z,100210.00
2022-08-26T22:10:25.893Z,100213.91
2022-08-26T22:12:56.052Z,100222.41
2022-08-26T22:15:27.552Z,100216.56
2022-08-26T22:17:59.831Z,100230.69
2022-08-26T22:20:29.281Z,100207.81
2022-08-26T22:22:58.719Z,100211.53
2022-08-26T22:25:28.222Z,100220.00
2022-08-26T22:27:57.693Z,100205.47
2022-08-26T22:30:27.145Z,100211.13
2022-08-26T22:32:59.442Z,100211.63
2022-08-26T22:35:29.716Z,100223.28
2022-08-26T22:37:59.393Z,100218.72
2022-08-26T22:40:28.907Z,100217.34
2022-08-26T22:43:00.256Z,100213.03
2022-08-26T22:45:31.343Z,100217.41
2022-08-26T22:48:04.629Z,100217.28
2022-08-26T22:50:34.078Z,100223.22
2022-08-26T22:53:03.512Z,100220.59
2022-08-26T22:55:32.997Z,100211.28
2022-08-26T22:58:03.076Z,100206.56
2022-08-26T23:00:32.664Z,100210.66
2022-08-26T23:03:06.927Z,100202.34
2022-08-26T23:05:36.406Z,100212.03
2022-08-26T23:08:06.435Z,100210.06
2022-08-26T23:10:36.917Z,100210.81
2022-08-26T23:13:08.135Z,100203.09
2022-08-26T23:15:37.819Z,100197.56
2022-08-26T23:18:09.986Z,100201.50
2022-08-26T23:20:39.830Z,100205.09
2022-08-26T23:23:09.464Z,100205.63
2022-08-26T23:25:38.902Z,100209.81
2022-08-26T23:28:12.505Z,100214.16
2022-08-26T23:30:41.953Z,100213.50
2022-08-26T23:33:13.946Z,100215.50
2022-08-26T23:35:40.799Z,100208.16
2022-08-26T23:38:11.777Z,100207.84
2022-08-26T23:40:43.652Z,100212.44
2022-08-26T23:43:16.355Z,100214.72
2022-08-26T23:45:45.862Z,100207.16
2022-08-26T23:48:17.900Z,100209.47
2022-08-26T23:51:13.122Z,100204.38
2022-08-26T23:53:43.565Z,100210.84
2022-08-26T23:56:15.742Z,100212.75
2022-08-26T23:58:52.470Z,100208.09
